GCLP/LPA METAR and TAF weather

Enter ICAO airport designator
Station Type Date Time Source
GCLP METAR 2020/07/12 06:00 UTC NOAA

GCLP 120600Z 01018KT 9999 FEW020 21/17 Q1013 NOSIG


Station Type Date Time Source
GCLP Decoded METAR 2020/07/12 06:00 UTC NOAA

Gran Canaria - Canary Islands, Spain (GCLP) 27-56N 015-23W 47M
Jul 12, 2020 - 02:00 AM EDT / 2020.07.12 0600 UTC
Wind: from the N (010 degrees) at 21 MPH (18 KT):0
Visibility: greater than 7 mile(s):0
Sky conditions: mostly clear
Temperature: 69 F (21 C)
Dew Point: 62 F (17 C)
Relative Humidity: 77%
Pressure (altimeter): 29.91 in. Hg (1013 hPa)
ob: GCLP 120600Z 01018KT 9999 FEW020 21/17 Q1013 NOSIG
cycle: 6

Station Type Date Time Source
GCLP TAF 2020/07/12 03:31 UTC NOAA

TAF GCLP 120200Z 1203/1303 01022KT 9999 FEW015 TX28/1214Z TN21/1206Z PROB30
TEMPO 1212/1220 02024G34KT

Example: see airport list